KHTSKUNI

Guest
Details From KHTS - Tri State Milton J Ferguson Fld
To KUNI - Ohio University Snyder Field
Flight Number -
Tags generated
Created
Modified
Stats Distance 54 nm / 101 km
Max Altitude 3,900 ft / 1,189 m
Waypoints 3
Social Downloads 1
Likes 0
Share VATSIM

Download

Looking for another format? Having issues loading an existing format? Contact us
Advertisement - Login to hide

Notes

Basic altitude profile: - Ascent Rate: 2500ft/min - Ascent Speed: 250kts - Cruise Altitude: 35000ft - Cruise Speed: 420kts - Descent Rate: 1500ft/min - Descent Speed: 250kts Options: - Use NATs: yes - Use PACOTS: yes - Use low airways: yes - Use high airways: yes

Route

KHTS CROUP KUNI

ID Type Via Altitude Latitude Longitude Leg Dist Tot Dist Heading (true) Name
O KHTS APT - 0 ft / 0 m 38.36574˚ -82.55712˚ - 0 nm - Tri State Milton J Ferguson Fld
CROUP FIX - 3,900 ft / 1,189 m 38.50483˚ -82.39901˚ 11 nm 11 nm 42° / 42° -
O KUNI APT - 0 ft / 0 m 39.21189˚ -82.22925˚ 43 nm 54 nm 11° / 11° Ohio University Snyder Field

Altitude Profile

Advertisement - Login to hide

KHTS

Details ICAO KHTS (HTS)
Name Tri State Milton J Ferguson Fld
Region United States
Timezone America/New_York (UTC-5.0)
Stats Elevation 828 ft / 252 m (AMSL)
Location 38.365742° -82.557118°
Runways 2
Magnetic Variation 7.135° W

METAR

KHTS 141851Z 34006KT 10SM OVC033 01/M07 A2998 RMK AO2 SLP156 T00111072

Decode

TAF

KHTS 141728Z 1418/1518 33004KT P6SM SCT035 FM142100 34004KT P6SM SCT250 FM150300 00000KT P6SM SCT040 FM151600 24005KT P6SM SCT040

Decode

Departure Runways

ID Width Length Bearing (true) Bearing (mag) Surface Threshold Offset Overrun Length
03 60 ft / 18 m 3,011 ft / 918 m 22.28° 29.42° Asphalt 0 ft / 0 m 0 ft / 0 m
12 150 ft / 46 m 6,506 ft / 1,983 m 112.45° 119.59° Asphalt 0 ft / 0 m 0 ft / 0 m
21 60 ft / 18 m 3,011 ft / 918 m 202.29° 209.43° Asphalt 0 ft / 0 m 0 ft / 0 m
30 150 ft / 46 m 6,506 ft / 1,983 m 292.47° 299.61° Asphalt 0 ft / 0 m 200 ft / 61 m

KUNI

Details ICAO KUNI
Name Ohio University Snyder Field
Region United States
Timezone America/New_York (UTC-5.0)
Stats Elevation 766 ft / 233 m (AMSL)
Location 39.211892° -82.229254°
Runways 1
Magnetic Variation 7.520° W

METAR

KUNI 141935Z AUTO 34003KT 10SM OVC027 M02/M08 A3001 RMK AO2 T10241079

Decode

TAF

Not found

Destination Runways

ID Width Length Bearing (true) Bearing (mag) Surface Threshold Offset Overrun Length
07 98 ft / 30 m 5,593 ft / 1,705 m 60.60° 68.12° Asphalt 899 ft / 274 m 0 ft / 0 m
25 98 ft / 30 m 5,593 ft / 1,705 m 240.62° 248.14° Asphalt 0 ft / 0 m 0 ft / 0 m

Approach Navaids

Runway Type Ident Frequency Range Bearing (true) Bearing (mag) Slope Elevation
25 Localiser IUNI 108.75 MHz 18 nm / 33 km 240.60° 248.12° - 761 ft / 232 m (AMSL)
25 Glidescope IUNI 108.75 MHz 10 nm / 19 km 240.61° 248.13° 3.00° 757 ft / 231 m (AMSL)